• Join FlightAware (Why Join?)
  • Login
  • US Flag 
11:43AM EDT


 

Airport Tracker/Info


-or-


 

Live Flight TrackerFlight Track Log ✈ PDT4226 ✈ 13-Oct-2013 ✈ KPHL - KBGM

Flight Track Log - Related Links

Times and Time Zones

All times are in EDT time to prevent confusion due to time zone crossing. See the PDT4226 flight status page for this flight to view local times or setup timezone preferences in your user account.

Time Position Orientation Groundspeed Altitude Reporting Facility
EDT Latitude Longitude Course Direction KTS MPH feet Rate Location/Type
12:21PM 39.8833 -75.2000 304° West 111 128 800  Level Philadelphia TRACON
12:22PM 39.9167 -75.1667 37° Northeast 138 159 2,300 1,140 Climbing Philadelphia TRACON
12:23PM 39.9500 -75.1333 37° Northeast 147 169 3,500 1,200 Climbing Philadelphia TRACON
12:24PM 39.9833 -75.1667 323° Northwest 168 193 4,800 1,260 Climbing Philadelphia TRACON
12:25PM 40.1425 -75.3236 311° West  Level Estimated
12:25PM 40.0167 -75.2167 311° West 166 191 6,100  Level Philadelphia TRACON
12:26PM 40.1810 -75.3992 304° West  Level FlightAware Approximate
12:26PM 40.0500 -75.2667 311° West 172 198 7,100  Level Philadelphia TRACON
12:27PM 40.0667 -75.3167 294° West 171 197 8,300 660 Climbing Philadelphia TRACON
12:29PM 40.1281 -75.4267 306° West 200 230 9,000 300 Climbing New York Center
12:30PM 40.1675 -75.4836 312° West 227 261 9,200 780 Climbing New York Center
12:31PM 40.2128 -75.5439 315° West 227 261 10,600 1,320 Climbing New York Center
12:32PM 40.2597 -75.5689 338° Northwest 203 234 11,900 660 Climbing New York Center
12:33PM 40.3128 -75.5969 338° Northwest 190 219 12,000 60 Climbing New York Center
12:34PM 40.3633 -75.6358 330° Northwest 217 250 12,100 720 Climbing New York Center
12:35PM 40.4178 -75.6806 328° Northwest 222 255 13,500 900 Climbing New York Center
12:36PM 40.4686 -75.7142 333° Northwest 201 231 14,000 240 Climbing New York Center
12:37PM 40.5253 -75.7511 334° Northwest 201 231 14,000  Level New York Center
12:38PM 40.5861 -75.7883 335° Northwest 229 264 14,000  Level New York Center
12:39PM 40.6431 -75.8228 335° Northwest 241 277 14,000  Level New York Center
12:40PM 40.7081 -75.8603 336° Northwest 248 285 14,000  Level New York Center
12:41PM 40.7747 -75.9119 330° Northwest 253 291 14,000  Level New York Center
12:42PM 40.8372 -75.9578 331° Northwest 259 298 14,000  Level New York Center
12:43PM 40.8964 -75.9897 338° Northwest 259 298 14,000  Level New York Center
12:44PM 40.9669 -76.0389 332° Northwest 254 292 14,000  Level New York Center
12:45PM 41.0192 -76.0869 325° Northwest 254 292 14,000  Level New York Center
12:46PM 41.0831 -76.1444 326° Northwest 254 292 14,000  Level New York Center
12:47PM 41.1531 -76.1636 348° North 254 292 14,000  Level New York Center
12:48PM 41.2203 -76.1967 340° North 254 292 14,000  Level New York Center
12:49PM 41.2844 -76.2075 353° North 254 292 14,000  Level New York Center
12:50PM 41.3539 -76.1936 North 254 292 14,000  Level New York Center
12:51PM 41.4328 -76.1972 358° North 254 292 14,000  Level New York Center
12:52PM 41.5056 -76.2003 358° North 254 292 14,000  Level New York Center
12:53PM 41.5769 -76.1894 North 254 292 14,000 -540 Level New York Center
12:54PM 41.6461 -76.1811 North 268 308 13,000 -1,020 Descending New York Center
12:55PM 41.7236 -76.1708 North 281 323 12,000 -1,200 Descending New York Center
12:56PM 41.8092 -76.1639 North 281 323 10,700 -1,320 Descending New York Center
12:57PM 41.8833 -76.1336 17° North 276 318 9,400 -1,620 Descending New York Center
12:58PM 41.9539 -76.0947 22° Northeast 271 312 7,500 -1,980 Descending New York Center
12:59PM 42.0131 -76.0744 14° North 255 293 5,500 -1,920 Descending New York Center
01:00PM 42.0747 -76.0458 19° North 243 280 3,700 -1,140 Descending New York Center
01:01PM 42.1306 -76.0083 26° Northeast 226 260 3,300 -300 Descending New York Center
01:02PM 42.1875 -76.0408 337° Northwest 207 238 3,100 -180 Descending New York Center
01:03PM 42.2283 -76.0553 345° North 183 211 3,000 -300 Descending New York Center
01:04PM 42.2450 -76.0089 64° Northeast 126 145 2,500 -540 Descending New York Center